createdAt,value
2017-12-08T00:00:54.616Z,96.28
2017-12-08T00:03:29.831Z,96.14
2017-12-08T00:06:04.900Z,96.06
2017-12-08T00:08:39.464Z,95.90
2017-12-08T00:11:14.585Z,95.84
2017-12-08T00:13:49.007Z,95.78
2017-12-08T00:16:24.240Z,95.70
2017-12-08T00:18:59.096Z,95.64
2017-12-08T00:21:33.896Z,95.58
2017-12-08T00:24:08.932Z,95.69
2017-12-08T00:26:43.888Z,95.69
2017-12-08T00:29:18.893Z,95.43
2017-12-08T00:31:53.944Z,95.34
2017-12-08T00:34:28.924Z,94.87
2017-12-08T00:37:03.808Z,94.85
2017-12-08T00:39:38.960Z,94.63
2017-12-08T00:42:13.944Z,94.52
2017-12-08T00:44:49.043Z,93.85
2017-12-08T00:47:24.396Z,93.62
2017-12-08T00:49:59.267Z,93.16
2017-12-08T00:52:34.228Z,92.94
2017-12-08T00:55:09.265Z,93.21
2017-12-08T00:57:44.092Z,93.18
2017-12-08T01:00:18.992Z,93.06
2017-12-08T01:02:53.947Z,92.86
2017-12-08T01:05:29.000Z,92.88
2017-12-08T01:08:04.132Z,93.15
2017-12-08T01:10:39.360Z,93.10
2017-12-08T01:13:14.648Z,92.90
2017-12-08T01:15:49.765Z,92.81
2017-12-08T01:18:24.800Z,92.87
2017-12-08T01:21:00.205Z,92.61
2017-12-08T01:23:35.484Z,92.58
2017-12-08T01:26:10.593Z,92.35
2017-12-08T01:28:45.711Z,92.08
2017-12-08T01:31:20.597Z,91.70
2017-12-08T01:33:55.399Z,91.86
2017-12-08T01:36:30.510Z,91.93
2017-12-08T01:39:04.972Z,92.09
2017-12-08T01:41:40.183Z,92.21
2017-12-08T01:44:15.148Z,92.27
2017-12-08T01:46:50.072Z,92.40
2017-12-08T01:49:25.144Z,92.45
2017-12-08T01:51:59.555Z,92.43
2017-12-08T01:54:34.462Z,92.41
2017-12-08T01:57:09.311Z,92.36
2017-12-08T01:59:44.236Z,92.50
2017-12-08T02:02:19.131Z,92.40
2017-12-08T02:04:54.004Z,92.21
2017-12-08T02:07:29.033Z,92.04
2017-12-08T02:10:04.259Z,92.12
2017-12-08T02:12:39.440Z,92.20
2017-12-08T02:15:14.468Z,92.23
2017-12-08T02:17:49.780Z,92.14
2017-12-08T02:20:24.424Z,92.39
2017-12-08T02:22:59.426Z,92.48
2017-12-08T02:25:34.328Z,92.47
2017-12-08T02:28:09.288Z,92.41
2017-12-08T02:30:43.512Z,92.39
2017-12-08T02:33:18.304Z,92.62
2017-12-08T02:35:53.127Z,92.69
2017-12-08T02:38:28.145Z,92.65
2017-12-08T02:41:03.049Z,92.55
2017-12-08T02:43:37.809Z,92.49
2017-12-08T02:46:12.613Z,92.50
2017-12-08T02:48:47.684Z,92.51
2017-12-08T02:51:22.331Z,92.02
2017-12-08T02:53:57.268Z,91.91
2017-12-08T02:56:32.065Z,91.56
2017-12-08T02:59:07.112Z,91.28
2017-12-08T03:01:42.304Z,91.24
2017-12-08T03:04:17.409Z,90.85
2017-12-08T03:06:52.332Z,90.77
2017-12-08T03:09:27.121Z,90.74
2017-12-08T03:12:02.096Z,90.84
2017-12-08T03:14:37.100Z,90.81
2017-12-08T03:17:11.980Z,90.81
2017-12-08T03:19:46.732Z,90.86
2017-12-08T03:22:22.092Z,90.59
2017-12-08T03:24:56.936Z,90.34
2017-12-08T03:27:31.520Z,90.33
2017-12-08T03:30:06.504Z,90.60
2017-12-08T03:32:41.684Z,90.74
2017-12-08T03:35:16.484Z,90.74
2017-12-08T03:37:50.907Z,90.86
2017-12-08T03:40:25.648Z,90.78
2017-12-08T03:43:00.844Z,90.95
2017-12-08T03:45:35.245Z,90.93
2017-12-08T03:48:10.237Z,90.86
2017-12-08T03:50:45.191Z,90.92
2017-12-08T03:53:19.993Z,90.83
2017-12-08T03:55:54.708Z,90.68
2017-12-08T03:58:29.404Z,90.99
2017-12-08T04:01:04.280Z,91.23
2017-12-08T04:03:38.992Z,91.14
2017-12-08T04:06:13.740Z,91.24
2017-12-08T04:08:48.677Z,91.21
2017-12-08T04:11:23.793Z,91.14
2017-12-08T04:13:58.875Z,90.98
2017-12-08T04:16:33.736Z,91.22
2017-12-08T04:19:08.516Z,91.14
2017-12-08T04:21:43.184Z,90.85
2017-12-08T04:24:18.198Z,91.02
2017-12-08T04:26:52.915Z,91.12
2017-12-08T04:29:27.623Z,91.26
2017-12-08T04:32:02.660Z,91.19
2017-12-08T04:34:37.540Z,91.30
2017-12-08T04:37:11.960Z,91.15
2017-12-08T04:39:46.744Z,91.44
2017-12-08T04:42:21.700Z,91.21
2017-12-08T04:44:56.794Z,91.36
2017-12-08T04:47:31.813Z,91.39
2017-12-08T04:50:06.863Z,91.65
2017-12-08T04:52:42.115Z,91.87
2017-12-08T04:55:16.873Z,92.17
2017-12-08T04:57:52.132Z,92.05
2017-12-08T05:00:27.003Z,91.82
2017-12-08T05:03:01.625Z,91.00
2017-12-08T05:05:36.045Z,91.02
2017-12-08T05:08:11.172Z,91.11
2017-12-08T05:10:45.892Z,91.04
2017-12-08T05:13:21.054Z,90.88
2017-12-08T05:15:56.136Z,90.52
2017-12-08T05:18:30.936Z,90.48
2017-12-08T05:21:05.404Z,92.14
2017-12-08T05:23:40.164Z,93.24
2017-12-08T05:26:15.044Z,93.15
2017-12-08T05:28:49.848Z,93.15
2017-12-08T05:31:24.684Z,93.67
2017-12-08T05:33:59.837Z,93.70
2017-12-08T05:36:34.785Z,93.53
2017-12-08T05:39:09.881Z,93.38
2017-12-08T05:41:44.956Z,93.51
2017-12-08T05:44:19.735Z,93.19
2017-12-08T05:46:54.588Z,93.15
2017-12-08T05:49:29.408Z,92.93
2017-12-08T05:52:04.403Z,92.81
2017-12-08T05:54:39.211Z,92.63
2017-12-08T05:57:14.159Z,92.32
2017-12-08T05:59:49.145Z,92.03
2017-12-08T06:02:23.892Z,91.95
2017-12-08T06:04:59.396Z,91.89
2017-12-08T06:07:34.483Z,92.06
2017-12-08T06:10:09.284Z,92.26
2017-12-08T06:12:44.548Z,92.20
2017-12-08T06:15:19.311Z,92.11
2017-12-08T06:17:54.220Z,91.98
2017-12-08T06:20:28.724Z,91.54
2017-12-08T06:23:03.854Z,91.66
2017-12-08T06:25:38.679Z,91.57
2017-12-08T06:28:13.411Z,91.63
2017-12-08T06:30:48.346Z,91.81
2017-12-08T06:33:23.320Z,91.74
2017-12-08T06:35:58.306Z,91.78
2017-12-08T06:38:33.399Z,91.95
2017-12-08T06:41:08.724Z,91.92
2017-12-08T06:43:43.336Z,91.86
2017-12-08T06:46:18.564Z,91.82
2017-12-08T06:48:53.300Z,91.89
2017-12-08T06:51:28.014Z,91.73
2017-12-08T06:54:02.916Z,91.72
2017-12-08T06:56:37.507Z,91.48
2017-12-08T06:59:12.176Z,91.29
2017-12-08T07:01:47.211Z,91.37
2017-12-08T07:04:21.772Z,91.21
2017-12-08T07:06:56.672Z,90.93
2017-12-08T07:09:31.379Z,90.85
2017-12-08T07:12:06.260Z,90.91
2017-12-08T07:14:40.892Z,90.55
2017-12-08T07:17:15.794Z,90.11
2017-12-08T07:19:50.195Z,89.88
2017-12-08T07:22:24.624Z,89.69
2017-12-08T07:24:59.936Z,89.50
2017-12-08T07:27:34.380Z,88.88
2017-12-08T07:30:09.615Z,88.62
2017-12-08T07:32:44.324Z,88.34
2017-12-08T07:35:19.209Z,88.45
2017-12-08T07:37:53.908Z,88.12
2017-12-08T07:40:28.836Z,88.05
2017-12-08T07:43:03.744Z,87.81
2017-12-08T07:45:38.572Z,87.46
2017-12-08T07:48:13.072Z,87.57
2017-12-08T07:50:47.980Z,87.40
2017-12-08T07:53:23.025Z,87.44
2017-12-08T07:55:57.949Z,87.16
2017-12-08T07:58:32.593Z,86.92
2017-12-08T08:01:07.509Z,86.81
2017-12-08T08:03:42.361Z,86.65
2017-12-08T08:06:17.252Z,86.43
2017-12-08T08:08:51.903Z,86.43
2017-12-08T08:11:26.840Z,86.54
2017-12-08T08:14:01.989Z,86.28
2017-12-08T08:16:36.659Z,86.33
2017-12-08T08:19:11.785Z,86.47
2017-12-08T08:21:46.383Z,86.62
2017-12-08T08:24:21.084Z,86.69
2017-12-08T08:26:56.245Z,86.67
2017-12-08T08:29:31.165Z,86.20
2017-12-08T08:32:06.328Z,86.28
2017-12-08T08:34:41.256Z,86.20
2017-12-08T08:37:16.208Z,86.19
2017-12-08T08:39:51.236Z,85.49
2017-12-08T08:42:26.473Z,85.50
2017-12-08T08:45:01.311Z,85.44
2017-12-08T08:47:35.950Z,84.90
2017-12-08T08:50:10.669Z,84.57
2017-12-08T08:52:45.617Z,84.43
2017-12-08T08:55:20.362Z,83.88
2017-12-08T08:57:55.356Z,83.24
2017-12-08T09:00:29.860Z,83.39
2017-12-08T09:03:04.840Z,83.06
2017-12-08T09:05:39.849Z,82.42
2017-12-08T09:08:14.313Z,81.74
2017-12-08T09:10:49.228Z,81.23
2017-12-08T09:13:24.080Z,80.86
2017-12-08T09:15:58.840Z,81.26
2017-12-08T09:18:33.849Z,80.76
2017-12-08T09:21:08.672Z,80.96
2017-12-08T09:23:43.276Z,81.54
2017-12-08T09:26:18.458Z,81.18
2017-12-08T09:28:55.336Z,82.06
2017-12-08T09:31:30.512Z,82.57
2017-12-08T09:34:05.427Z,82.92
2017-12-08T09:36:40.116Z,83.03
2017-12-08T09:39:15.204Z,82.75
2017-12-08T09:41:50.081Z,82.19
2017-12-08T09:44:25.192Z,82.78
2017-12-08T09:46:59.712Z,82.22
2017-12-08T09:49:34.500Z,81.84
2017-12-08T09:52:09.144Z,81.92
2017-12-08T09:54:44.248Z,81.17
2017-12-08T09:57:19.132Z,81.48
2017-12-08T09:59:54.160Z,80.99
2017-12-08T10:02:29.036Z,80.75
2017-12-08T10:05:03.905Z,80.74
2017-12-08T10:07:38.968Z,81.22
2017-12-08T10:10:14.067Z,81.09
2017-12-08T10:12:48.720Z,79.29
2017-12-08T10:15:23.839Z,78.53
2017-12-08T10:17:58.770Z,79.16
2017-12-08T10:20:33.424Z,79.13
2017-12-08T10:23:08.065Z,78.89
2017-12-08T10:25:43.181Z,79.85
2017-12-08T10:28:18.088Z,79.89
2017-12-08T10:30:52.454Z,80.96
2017-12-08T10:33:27.568Z,80.89
2017-12-08T10:36:02.044Z,81.03
2017-12-08T10:38:37.056Z,81.60
2017-12-08T10:41:11.889Z,82.41
2017-12-08T10:43:46.407Z,82.96
2017-12-08T10:46:21.743Z,82.82
2017-12-08T10:48:56.438Z,82.92
2017-12-08T10:51:31.121Z,82.66
2017-12-08T10:54:06.356Z,83.18
2017-12-08T10:56:41.791Z,82.77
2017-12-08T10:59:16.465Z,83.09
2017-12-08T11:01:51.268Z,83.16
2017-12-08T11:04:25.817Z,83.16
2017-12-08T11:07:00.791Z,83.45
2017-12-08T11:09:35.520Z,83.77
2017-12-08T11:12:10.228Z,83.87
2017-12-08T11:14:46.566Z,83.99
2017-12-08T11:17:20.918Z,84.08
2017-12-08T11:19:55.721Z,84.40
2017-12-08T11:22:30.265Z,84.38
2017-12-08T11:25:05.205Z,84.97
2017-12-08T11:27:39.825Z,85.31
2017-12-08T11:30:14.318Z,84.99
2017-12-08T11:32:49.442Z,85.17
2017-12-08T11:35:24.465Z,84.93
2017-12-08T11:37:59.489Z,84.96
2017-12-08T11:40:35.008Z,84.48
2017-12-08T11:43:09.576Z,84.79
2017-12-08T11:45:44.493Z,84.37
2017-12-08T11:48:19.432Z,84.76
2017-12-08T11:50:54.289Z,85.09
2017-12-08T11:53:29.189Z,85.53
2017-12-08T11:56:04.341Z,85.54
2017-12-08T11:58:39.124Z,86.53
2017-12-08T12:01:13.517Z,87.63
2017-12-08T12:03:48.525Z,88.33
2017-12-08T12:06:23.673Z,88.82
2017-12-08T12:08:58.684Z,89.20
2017-12-08T12:11:33.818Z,89.24
2017-12-08T12:14:08.693Z,89.84
2017-12-08T12:16:43.516Z,89.99
2017-12-08T12:19:18.400Z,90.51
2017-12-08T12:21:53.181Z,91.05
2017-12-08T12:24:28.196Z,91.10
2017-12-08T12:27:02.936Z,91.45
2017-12-08T12:29:37.740Z,92.17
2017-12-08T12:32:12.500Z,92.21
2017-12-08T12:34:47.481Z,92.35
2017-12-08T12:37:22.376Z,92.39
2017-12-08T12:39:57.463Z,92.58
2017-12-08T12:42:31.995Z,92.69
2017-12-08T12:45:06.904Z,92.79
2017-12-08T12:47:42.284Z,93.05
2017-12-08T12:50:17.176Z,93.41
2017-12-08T12:52:52.088Z,93.54
2017-12-08T12:55:26.988Z,93.62
2017-12-08T12:58:01.702Z,93.43
2017-12-08T13:00:36.531Z,93.44
2017-12-08T13:03:11.361Z,92.86
2017-12-08T13:05:46.357Z,93.09
2017-12-08T13:08:21.440Z,93.25
2017-12-08T13:10:56.437Z,93.39
2017-12-08T13:13:31.141Z,93.45
2017-12-08T13:16:06.220Z,93.50
2017-12-08T13:18:41.093Z,92.94
2017-12-08T13:21:16.336Z,92.64
2017-12-08T13:23:50.844Z,92.02
2017-12-08T13:26:25.692Z,91.93
2017-12-08T13:29:00.597Z,92.07
2017-12-08T13:31:35.474Z,91.79
2017-12-08T13:34:10.180Z,91.32
2017-12-08T13:36:44.941Z,90.94
2017-12-08T13:39:19.735Z,90.84
2017-12-08T13:41:54.603Z,90.32
2017-12-08T13:44:29.009Z,90.50
2017-12-08T13:47:03.855Z,90.37
2017-12-08T13:49:38.788Z,90.71
2017-12-08T13:52:13.590Z,91.04
2017-12-08T13:54:59.728Z,91.46
2017-12-08T13:57:34.160Z,91.47
2017-12-08T14:00:08.944Z,91.70
2017-12-08T14:02:43.841Z,91.85
2017-12-08T14:05:18.252Z,92.18
2017-12-08T14:07:53.381Z,92.33
2017-12-08T14:10:28.260Z,91.95
2017-12-08T14:13:02.913Z,92.13
2017-12-08T14:15:37.737Z,92.39
2017-12-08T14:18:12.716Z,92.69
2017-12-08T14:20:47.928Z,93.07
2017-12-08T14:23:22.956Z,93.50
2017-12-08T14:25:58.136Z,94.01
2017-12-08T14:28:33.196Z,94.51
2017-12-08T14:31:08.119Z,94.77
2017-12-08T14:33:43.068Z,95.17
2017-12-08T14:36:17.665Z,95.38
2017-12-08T14:38:52.827Z,95.55
2017-12-08T14:41:27.777Z,95.67
2017-12-08T14:44:02.793Z,95.77
2017-12-08T14:46:38.017Z,95.76
2017-12-08T14:49:13.095Z,96.02
2017-12-08T14:51:48.104Z,96.17
2017-12-08T14:54:22.947Z,96.28
2017-12-08T14:56:57.985Z,96.28
2017-12-08T14:59:32.912Z,96.06
2017-12-08T15:02:07.719Z,95.79
2017-12-08T15:04:42.476Z,95.13
2017-12-08T15:07:17.805Z,94.73
2017-12-08T15:09:52.623Z,94.51
2017-12-08T15:12:27.370Z,94.46
2017-12-08T15:15:02.376Z,94.57
2017-12-08T15:17:37.743Z,94.48
2017-12-08T15:20:12.380Z,94.42
2017-12-08T15:22:47.508Z,94.61
2017-12-08T15:25:22.404Z,94.98
2017-12-08T15:27:57.197Z,94.88
2017-12-08T15:30:32.398Z,94.70
2017-12-08T15:33:07.330Z,94.59
2017-12-08T15:35:42.024Z,94.55
2017-12-08T15:38:16.562Z,94.53
2017-12-08T15:40:51.564Z,94.28
2017-12-08T15:43:26.564Z,94.03
2017-12-08T15:46:01.994Z,93.97
2017-12-08T15:48:36.111Z,93.68
2017-12-08T15:51:10.798Z,93.34
2017-12-08T15:53:45.212Z,93.19
2017-12-08T15:56:19.927Z,93.15
2017-12-08T15:58:54.588Z,93.15
2017-12-08T16:01:29.172Z,93.32
2017-12-08T16:04:04.284Z,93.57
2017-12-08T16:06:39.038Z,93.69
2017-12-08T16:09:13.425Z,93.76
2017-12-08T16:11:48.464Z,93.94
2017-12-08T16:14:23.270Z,93.83
2017-12-08T16:16:58.045Z,93.71
2017-12-08T16:19:32.548Z,93.57
2017-12-08T16:22:07.866Z,93.61
2017-12-08T16:24:42.557Z,93.53
2017-12-08T16:27:17.228Z,93.39
2017-12-08T16:29:51.644Z,93.56
2017-12-08T16:32:27.028Z,93.58
2017-12-08T16:35:01.865Z,93.58
2017-12-08T16:37:36.694Z,93.79
2017-12-08T16:40:13.120Z,93.74
2017-12-08T16:42:47.740Z,93.76
2017-12-08T16:45:22.464Z,93.64
2017-12-08T16:47:57.768Z,93.36
2017-12-08T16:50:32.649Z,93.31
2017-12-08T16:53:07.240Z,93.49
2017-12-08T16:55:42.337Z,93.29
2017-12-08T16:58:17.366Z,92.92
2017-12-08T17:00:52.159Z,92.83
2017-12-08T17:03:26.788Z,92.46
2017-12-08T17:06:01.609Z,92.20
2017-12-08T17:08:36.764Z,92.12
2017-12-08T17:11:12.577Z,91.87
2017-12-08T17:13:47.716Z,92.04
2017-12-08T17:16:22.209Z,91.76
2017-12-08T17:18:57.172Z,91.44
2017-12-08T17:21:31.982Z,91.32
2017-12-08T17:24:06.396Z,91.21
2017-12-08T17:26:40.613Z,91.09
2017-12-08T17:29:15.242Z,91.08
2017-12-08T17:31:49.624Z,90.64
2017-12-08T17:34:23.956Z,90.60
2017-12-08T17:36:59.148Z,90.48
2017-12-08T17:39:34.005Z,90.19
2017-12-08T17:42:09.024Z,90.34
2017-12-08T17:44:43.896Z,90.11
2017-12-08T17:47:18.787Z,90.23
2017-12-08T17:49:53.809Z,90.10
2017-12-08T17:52:28.668Z,89.88
2017-12-08T17:55:03.673Z,89.65
2017-12-08T17:57:38.524Z,89.63
2017-12-08T18:00:13.303Z,89.64
2017-12-08T18:02:48.509Z,89.58
2017-12-08T18:05:23.076Z,89.64
2017-12-08T18:07:58.193Z,89.55
2017-12-08T18:10:33.250Z,89.63
2017-12-08T18:13:07.996Z,89.92
2017-12-08T18:15:42.780Z,89.80
2017-12-08T18:18:17.149Z,89.81
2017-12-08T18:20:52.188Z,89.71
2017-12-08T18:23:26.846Z,89.79
2017-12-08T18:26:01.948Z,89.85
2017-12-08T18:28:36.447Z,89.85
2017-12-08T18:31:11.385Z,89.79
2017-12-08T18:33:46.177Z,89.83
2017-12-08T18:36:30.477Z,89.93
2017-12-08T18:39:04.625Z,89.92
2017-12-08T18:41:39.953Z,89.97
2017-12-08T18:44:14.579Z,90.11
2017-12-08T18:46:49.476Z,90.31
2017-12-08T18:49:24.340Z,90.63
2017-12-08T18:51:59.064Z,90.94
2017-12-08T18:54:33.836Z,91.10
2017-12-08T18:57:08.416Z,91.19
2017-12-08T18:59:43.369Z,91.16
2017-12-08T19:02:18.212Z,91.22
2017-12-08T19:04:52.910Z,91.33
2017-12-08T19:07:27.934Z,91.55
2017-12-08T19:10:03.319Z,91.51
2017-12-08T19:12:38.023Z,91.52
2017-12-08T19:15:12.833Z,91.76
2017-12-08T19:17:48.293Z,91.87
2017-12-08T19:20:23.156Z,91.82
2017-12-08T19:22:58.172Z,91.63
2017-12-08T19:25:32.672Z,91.44
2017-12-08T19:28:07.451Z,91.54
2017-12-08T19:30:42.472Z,91.67
2017-12-08T19:33:16.766Z,91.45
2017-12-08T19:35:51.341Z,91.12
2017-12-08T19:38:25.997Z,90.98
2017-12-08T19:41:01.157Z,90.82
2017-12-08T19:43:35.700Z,90.62
2017-12-08T19:46:10.658Z,90.30
2017-12-08T19:48:45.032Z,89.79
2017-12-08T19:51:20.363Z,89.57
2017-12-08T19:53:55.248Z,89.79
2017-12-08T19:56:30.061Z,89.76
2017-12-08T19:59:04.989Z,89.24
2017-12-08T20:01:39.211Z,88.94
2017-12-08T20:04:14.301Z,88.90
2017-12-08T20:06:49.224Z,88.88
2017-12-08T20:09:24.159Z,88.83
2017-12-08T20:11:58.576Z,88.64
2017-12-08T20:14:33.663Z,88.82
2017-12-08T20:17:08.670Z,88.83
2017-12-08T20:19:43.567Z,88.63
2017-12-08T20:22:18.128Z,88.75
2017-12-08T20:24:52.652Z,88.96
2017-12-08T20:27:27.358Z,88.97
2017-12-08T20:30:02.035Z,89.05
2017-12-08T20:32:37.160Z,89.01
2017-12-08T20:35:12.092Z,89.00
2017-12-08T20:37:47.021Z,89.35
2017-12-08T20:40:21.964Z,89.31
2017-12-08T20:42:56.700Z,89.39
2017-12-08T20:45:31.232Z,89.76
2017-12-08T20:48:06.048Z,89.76
2017-12-08T20:50:40.895Z,89.89
2017-12-08T20:53:15.792Z,90.34
2017-12-08T20:55:50.930Z,91.02
2017-12-08T20:58:25.709Z,91.68
2017-12-08T21:01:00.532Z,92.13
2017-12-08T21:03:35.465Z,92.55
2017-12-08T21:06:10.297Z,93.24
2017-12-08T21:08:45.315Z,93.91
2017-12-08T21:11:20.065Z,94.45
2017-12-08T21:13:54.985Z,95.10
2017-12-08T21:16:29.917Z,95.85
2017-12-08T21:19:04.613Z,96.42
2017-12-08T21:21:39.548Z,96.82
2017-12-08T21:24:13.977Z,97.12
2017-12-08T21:26:48.509Z,97.41
2017-12-08T21:29:23.764Z,97.43
2017-12-08T21:31:58.801Z,97.31
2017-12-08T21:34:33.549Z,97.09
2017-12-08T21:37:08.425Z,97.07
2017-12-08T21:39:43.373Z,96.93
2017-12-08T21:42:18.520Z,96.86
2017-12-08T21:44:53.600Z,96.65
2017-12-08T21:47:28.501Z,96.58
2017-12-08T21:50:03.284Z,96.33
2017-12-08T21:52:38.032Z,96.28
2017-12-08T21:55:12.884Z,96.21
2017-12-08T21:57:47.704Z,95.85
2017-12-08T22:00:22.269Z,95.83
2017-12-08T22:02:56.571Z,95.77
2017-12-08T22:05:31.176Z,95.76
2017-12-08T22:08:06.312Z,95.69
2017-12-08T22:10:41.129Z,95.95
2017-12-08T22:13:16.056Z,96.12
2017-12-08T22:15:50.858Z,96.06
2017-12-08T22:18:25.601Z,96.19
2017-12-08T22:21:00.684Z,95.81
2017-12-08T22:23:35.488Z,95.43
2017-12-08T22:26:10.321Z,95.36
2017-12-08T22:28:45.464Z,95.57
2017-12-08T22:31:20.529Z,95.75
2017-12-08T22:33:55.323Z,95.94
2017-12-08T22:36:30.101Z,96.12
2017-12-08T22:39:04.620Z,95.96
2017-12-08T22:41:39.704Z,95.82
2017-12-08T22:44:14.632Z,95.97
2017-12-08T22:46:49.992Z,95.98
2017-12-08T22:49:24.945Z,95.85
2017-12-08T22:51:59.604Z,95.96
2017-12-08T22:54:34.499Z,95.81
2017-12-08T22:57:09.031Z,95.72
2017-12-08T22:59:44.147Z,95.72
2017-12-08T23:02:18.903Z,95.85
2017-12-08T23:04:53.917Z,95.92
2017-12-08T23:07:28.896Z,96.25
2017-12-08T23:10:03.799Z,96.54
2017-12-08T23:12:38.274Z,96.98
2017-12-08T23:15:13.049Z,97.38
2017-12-08T23:17:47.792Z,97.46
2017-12-08T23:20:22.701Z,97.41
2017-12-08T23:22:57.749Z,97.55
2017-12-08T23:25:32.356Z,97.61
2017-12-08T23:28:07.504Z,97.70
2017-12-08T23:30:42.317Z,97.80
2017-12-08T23:33:17.167Z,97.81
2017-12-08T23:35:52.089Z,97.82
2017-12-08T23:38:26.944Z,97.72
2017-12-08T23:41:01.732Z,97.54
2017-12-08T23:43:37.142Z,97.63
2017-12-08T23:46:11.851Z,97.63
2017-12-08T23:48:46.572Z,97.67
2017-12-08T23:51:21.520Z,97.46
2017-12-08T23:53:57.000Z,97.14
2017-12-08T23:56:31.876Z,96.95
2017-12-08T23:59:07.036Z,96.81
